Time;durP1;ratioP1;P1;durP2;ratioP2;P2;SDS_P1;SDS_P2;PMS_P1;PMS_P2;Temp;Humidity;BMP_temperature;BMP_pressure;BME280_temperature;BME280_humidity;BME280_pressure;Samples;Min_cycle;Max_cycle;Signal;HPM_P1;HPM_P2
2022/05/15 00:02:19;;;;;;;2.97;2.77;;;16.70;93.90;;;;;;10517818;28;20195;-79
2022/05/15 00:07:23;;;;;;;2.60;2.40;;;16.70;93.20;;;;;;10533644;28;20580;-79
2022/05/15 00:12:25;;;;;;;2.97;2.73;;;16.70;94.30;;;;;;10522942;28;20343;-78
2022/05/15 00:17:27;;;;;;;2.93;2.73;;;16.60;94.60;;;;;;10524304;28;20291;-79
2022/05/15 00:22:34;;;;;;;3.83;2.80;;;16.60;94.30;;;;;;10506696;28;20247;-79
2022/05/15 00:27:37;;;;;;;2.93;2.73;;;16.50;93.80;;;;;;10526680;28;20211;-78
2022/05/15 00:32:39;;;;;;;2.97;2.73;;;16.50;94.30;;;;;;10512760;28;20318;-78
2022/05/15 00:37:42;;;;;;;2.37;2.23;;;16.40;94.10;;;;;;10524427;28;20196;-78
2022/05/15 00:42:47;;;;;;;3.03;2.70;;;16.40;94.40;;;;;;10530261;28;20273;-78
2022/05/15 00:47:49;;;;;;;6.67;3.80;;;16.30;93.10;;;;;;10527029;28;20196;-79
2022/05/15 00:52:57;;;;;;;3.63;3.33;;;16.20;94.30;;;;;;10515182;28;20220;-78
2022/05/15 00:58:01;;;;;;;3.53;3.23;;;16.10;94.20;;;;;;10525732;28;20208;-79
2022/05/15 01:03:07;;;;;;;3.90;2.87;;;16.10;94.70;;;;;;10507531;28;20220;-78
2022/05/15 01:08:12;;;;;;;3.10;2.80;;;16.10;94.60;;;;;;10529276;28;20736;-78
2022/05/15 01:13:18;;;;;;;3.10;2.80;;;16.00;94.50;;;;;;10527390;28;20352;-79
2022/05/15 01:18:22;;;;;;;3.50;2.90;;;16.00;94.10;;;;;;10517626;28;20230;-78
2022/05/15 01:23:29;;;;;;;3.27;2.90;;;15.90;94.80;;;;;;10528583;28;20675;-78
2022/05/15 01:28:32;;;;;;;3.77;3.17;;;15.90;94.20;;;;;;10538623;28;20199;-78
2022/05/15 01:33:34;;;;;;;3.03;2.83;;;15.90;94.70;;;;;;10539502;28;20220;-79
2022/05/15 01:38:37;;;;;;;3.10;2.90;;;15.80;94.80;;;;;;10533988;28;20196;-81
2022/05/15 01:43:41;;;;;;;3.70;3.40;;;15.80;95.20;;;;;;10538010;28;20236;-79
2022/05/15 01:48:43;;;;;;;3.47;3.23;;;15.80;95.40;;;;;;10493113;28;20197;-79
2022/05/15 01:53:48;;;;;;;3.00;2.80;;;15.80;95.10;;;;;;10507512;28;20217;-79
2022/05/15 01:58:51;;;;;;;3.87;2.60;;;15.70;94.20;;;;;;10512191;28;20226;-79
2022/05/15 02:03:53;;;;;;;3.30;3.00;;;15.70;95.40;;;;;;10521885;28;20212;-79
2022/05/15 02:08:57;;;;;;;3.77;3.47;;;15.60;95.50;;;;;;10507979;28;20614;-79
2022/05/15 02:14:00;;;;;;;3.10;2.90;;;15.60;95.60;;;;;;10504591;28;20223;-78
2022/05/15 02:19:02;;;;;;;3.53;3.23;;;15.50;95.80;;;;;;10502520;28;20219;-79
2022/05/15 02:24:08;;;;;;;3.57;3.27;;;15.50;95.80;;;;;;10508883;28;20245;-78
2022/05/15 02:29:11;;;;;;;3.00;2.90;;;15.50;95.50;;;;;;10507152;28;20246;-78
2022/05/15 02:34:13;;;;;;;3.50;3.20;;;15.40;95.70;;;;;;10505971;28;20228;-79
2022/05/15 02:39:17;;;;;;;3.20;3.00;;;15.40;95.70;;;;;;10505702;28;20200;-78
2022/05/15 02:44:19;;;;;;;3.10;2.90;;;15.40;95.20;;;;;;10533883;28;20599;-79
2022/05/15 02:54:43;;;;;;;3.47;3.17;;;15.20;95.80;;;;;;10530288;28;20579;-78
2022/05/15 02:59:45;;;;;;;2.70;2.43;;;15.20;96.50;;;;;;10512960;28;20207;-79
2022/05/15 03:04:49;;;;;;;2.77;2.57;;;15.20;96.60;;;;;;10506643;28;20237;-79
2022/05/15 03:09:53;;;;;;;3.70;2.90;;;15.20;96.20;;;;;;10524115;28;20200;-80
2022/05/15 03:14:55;;;;;;;2.80;2.70;;;15.10;96.50;;;;;;10544318;28;20403;-80
2022/05/15 03:19:57;;;;;;;3.67;3.37;;;15.10;96.40;;;;;;10536846;28;20196;-80
2022/05/15 03:25:01;;;;;;;5.43;2.77;;;15.10;96.80;;;;;;10520009;28;20308;-80
2022/05/15 03:30:03;;;;;;;2.97;2.77;;;15.10;97.10;;;;;;10522084;28;20230;-80
2022/05/15 03:35:07;;;;;;;2.83;2.63;;;15.10;96.00;;;;;;10535401;28;20220;-78
2022/05/15 03:40:14;;;;;;;3.70;3.40;;;15.10;96.90;;;;;;10540251;28;20204;-78
2022/05/15 03:45:17;;;;;;;4.33;3.20;;;15.00;97.00;;;;;;10538258;28;20505;-79
2022/05/15 03:50:22;;;;;;;5.20;3.20;;;15.10;97.00;;;;;;10524494;28;20240;-79
2022/05/15 03:55:26;;;;;;;3.10;2.90;;;15.10;97.00;;;;;;10541114;28;20602;-78
2022/05/15 04:00:28;;;;;;;2.90;2.70;;;15.00;96.50;;;;;;10544383;28;20253;-79
2022/05/15 04:05:32;;;;;;;3.70;3.40;;;15.00;96.90;;;;;;10538226;28;20302;-79
2022/05/15 04:10:36;;;;;;;3.40;3.20;;;15.00;97.20;;;;;;10538671;28;20278;-79
2022/05/15 04:15:38;;;;;;;3.73;3.43;;;15.00;96.40;;;;;;10517054;28;20598;-80
2022/05/15 04:20:42;;;;;;;4.00;3.70;;;15.00;97.30;;;;;;10537316;28;20192;-79
2022/05/15 04:25:46;;;;;;;3.30;3.10;;;15.00;97.90;;;;;;10535858;28;20235;-80
2022/05/15 04:30:48;;;;;;;3.90;3.20;;;15.00;97.70;;;;;;10533874;28;20212;-80
2022/05/15 04:35:51;;;;;;;3.77;3.53;;;15.00;97.00;;;;;;10525748;28;20255;-80
2022/05/15 04:40:54;;;;;;;3.90;3.60;;;15.00;97.20;;;;;;10520845;28;20205;-80
2022/05/15 04:45:57;;;;;;;4.07;3.77;;;15.00;98.10;;;;;;10540428;28;20239;-79
2022/05/15 04:50:59;;;;;;;5.23;4.57;;;15.00;98.10;;;;;;10540555;28;20218;-80
2022/05/15 04:56:03;;;;;;;4.63;4.23;;;15.00;98.30;;;;;;10553469;28;20219;-79
2022/05/15 05:01:05;;;;;;;4.57;4.27;;;15.10;98.50;;;;;;10531116;28;20220;-80
2022/05/15 05:06:07;;;;;;;4.63;3.60;;;15.10;98.10;;;;;;10529624;28;20220;-79
2022/05/15 05:11:10;;;;;;;4.20;3.90;;;15.10;98.50;;;;;;10529695;28;20263;-80
2022/05/15 05:16:13;;;;;;;3.90;3.50;;;15.20;99.00;;;;;;10526780;28;20259;-80
2022/05/15 05:21:15;;;;;;;4.90;4.27;;;15.20;99.20;;;;;;10526578;28;20192;-79
2022/05/15 05:26:19;;;;;;;4.43;3.30;;;15.30;99.50;;;;;;10525266;28;20255;-80
2022/05/15 05:31:21;;;;;;;4.17;3.87;;;15.30;99.30;;;;;;10536371;28;20238;-78
2022/05/15 05:36:23;;;;;;;4.87;4.47;;;15.40;99.50;;;;;;10532008;28;20244;-80
2022/05/15 05:41:27;;;;;;;4.33;4.00;;;15.50;99.80;;;;;;10544338;28;20609;-80
2022/05/15 05:46:30;;;;;;;6.60;4.63;;;15.50;99.60;;;;;;10564327;22;20228;-83
2022/05/15 05:51:32;;;;;;;5.00;3.97;;;15.60;99.80;;;;;;10541784;28;20588;-82
2022/05/15 05:56:36;;;;;;;5.33;4.20;;;15.70;99.90;;;;;;10541504;28;20241;-83
2022/05/15 06:01:38;;;;;;;5.50;5.00;;;15.80;99.90;;;;;;10539816;28;20200;-84
2022/05/15 06:06:40;;;;;;;5.30;4.90;;;15.90;99.90;;;;;;10538071;28;20227;-83
2022/05/15 06:11:44;;;;;;;5.70;5.20;;;16.10;99.40;;;;;;10535658;28;20228;-85
2022/05/15 06:16:46;;;;;;;6.20;5.70;;;16.10;99.90;;;;;;10520448;28;20216;-83
2022/05/15 06:21:50;;;;;;;6.03;5.43;;;16.30;99.70;;;;;;10526102;28;20241;-83
2022/05/15 06:26:54;;;;;;;5.80;5.20;;;16.40;99.90;;;;;;10530150;28;20231;-81
2022/05/15 06:31:59;;;;;;;6.23;5.10;;;16.60;99.60;;;;;;10536150;28;20664;-82
2022/05/15 06:37:03;;;;;;;4.57;4.20;;;16.80;99.90;;;;;;10534348;28;20212;-81
2022/05/15 06:42:08;;;;;;;6.13;5.73;;;17.00;99.90;;;;;;10515237;28;20213;-82
2022/05/15 06:47:15;;;;;;;5.27;4.87;;;17.30;99.90;;;;;;10509551;28;20235;-82
2022/05/15 06:52:17;;;;;;;5.03;4.47;;;17.50;99.90;;;;;;10543801;28;20737;-83
2022/05/15 07:04:06;;;;;;;7.17;5.20;;;17.90;99.30;;;;;;10441299;28;20204;-83
2022/05/15 07:09:08;;;;;;;3.93;3.70;;;18.20;99.40;;;;;;10543371;28;20287;-83
2022/05/15 07:14:12;;;;;;;3.80;3.50;;;18.40;98.30;;;;;;10513202;28;20251;-83
2022/05/15 07:19:16;;;;;;;3.83;3.53;;;18.50;98.30;;;;;;10533605;28;20200;-83
2022/05/15 07:24:18;;;;;;;4.50;4.07;;;18.80;98.90;;;;;;10539747;28;20569;-80
2022/05/15 07:29:20;;;;;;;3.70;3.40;;;19.00;96.70;;;;;;10519830;28;20200;-79
2022/05/15 07:34:24;;;;;;;4.63;3.50;;;19.30;95.30;;;;;;10525832;28;20695;-81
2022/05/15 07:39:27;;;;;;;4.30;3.90;;;19.60;97.10;;;;;;10501937;28;20576;-83
2022/05/15 07:44:29;;;;;;;3.80;3.50;;;19.80;96.00;;;;;;10525929;28;20224;-82
2022/05/15 07:49:33;;;;;;;4.50;4.10;;;20.10;96.70;;;;;;10511924;28;20230;-83
2022/05/15 07:54:35;;;;;;;3.60;3.30;;;20.30;95.60;;;;;;10529518;28;20721;-83
2022/05/15 07:59:37;;;;;;;5.50;3.47;;;20.60;96.20;;;;;;10508987;28;20234;-84
2022/05/15 08:09:57;;;;;;;5.53;3.30;;;21.20;93.10;;;;;;10520500;28;20207;-83
2022/05/15 08:14:59;;;;;;;4.20;3.77;;;21.40;93.30;;;;;;10521072;28;20247;-83
2022/05/15 08:25:22;;;;;;;3.13;2.90;;;22.00;91.40;;;;;;10525791;28;20706;-84
2022/05/15 08:30:24;;;;;;;3.20;3.00;;;22.40;92.30;;;;;;10515803;28;20200;-84
2022/05/15 08:35:28;;;;;;;5.13;3.00;;;22.70;91.40;;;;;;10511608;28;20671;-85
2022/05/15 08:40:45;;;;;;;5.63;2.80;;;23.00;91.70;;;;;;10497447;28;20224;-83
2022/05/15 08:45:57;;;;;;;4.17;3.87;;;23.50;90.60;;;;;;10501939;28;20699;-83
2022/05/15 08:51:02;;;;;;;4.33;3.90;;;23.80;89.40;;;;;;10521681;28;20230;-84
2022/05/15 08:56:07;;;;;;;4.10;2.87;;;24.20;87.70;;;;;;10513635;28;20584;-83
2022/05/15 09:01:13;;;;;;;4.00;3.07;;;24.50;89.10;;;;;;10512400;28;20204;-83
2022/05/15 09:06:30;;;;;;;4.17;3.40;;;24.80;86.20;;;;;;10508773;28;20268;-84
2022/05/15 09:11:46;;;;;;;4.93;2.87;;;25.10;84.30;;;;;;10490718;28;20759;-83
2022/05/15 09:16:55;;;;;;;4.67;3.20;;;25.40;85.70;;;;;;10532744;28;20710;-82
2022/05/15 09:21:59;;;;;;;3.40;3.10;;;25.60;81.80;;;;;;10536252;28;20203;-84
2022/05/15 09:27:13;;;;;;;3.53;3.00;;;25.80;83.10;;;;;;10484497;28;20217;-84
2022/05/15 09:32:26;;;;;;;3.00;2.80;;;26.10;84.00;;;;;;10498706;28;20227;-83
2022/05/15 09:48:25;;;;;;;3.57;3.27;;;26.50;74.70;;;;;;10530024;28;20208;-83
2022/05/15 09:53:41;;;;;;;3.67;3.33;;;26.40;82.20;;;;;;10519410;28;20320;-83
2022/05/15 09:58:46;;;;;;;3.50;3.30;;;26.50;84.10;;;;;;10506662;28;20798;-83
2022/05/15 10:03:51;;;;;;;4.27;3.20;;;26.70;83.20;;;;;;10492424;28;20235;-83
2022/05/15 10:09:11;;;;;;;4.70;3.53;;;27.50;74.80;;;;;;10519378;28;20214;-83
2022/05/15 10:14:29;;;;;;;3.03;2.83;;;28.30;78.80;;;;;;10495752;28;20228;-83
2022/05/15 10:19:38;;;;;;;3.70;3.40;;;28.50;77.70;;;;;;10518137;28;20192;-84
2022/05/15 10:24:45;;;;;;;3.53;3.33;;;28.00;76.00;;;;;;10516194;28;20246;-84
2022/05/15 10:29:55;;;;;;;3.07;2.87;;;27.20;73.40;;;;;;10523578;28;20203;-83
2022/05/15 10:34:58;;;;;;;3.40;3.20;;;26.50;75.80;;;;;;10500106;28;20712;-83
2022/05/15 10:40:17;;;;;;;4.87;3.43;;;25.80;75.50;;;;;;10511107;28;20668;-83
2022/05/15 10:45:25;;;;;;;3.33;3.13;;;25.30;76.80;;;;;;10492997;28;20324;-83
2022/05/15 10:50:34;;;;;;;3.33;3.13;;;24.80;79.30;;;;;;10498038;28;20220;-83
2022/05/15 11:01:08;;;;;;;4.30;3.20;;;24.10;77.00;;;;;;10499706;28;20228;-84
2022/05/15 11:06:34;;;;;;;3.23;3.13;;;23.80;77.40;;;;;;10517867;28;20630;-83
2022/05/15 11:11:50;;;;;;;5.90;3.07;;;23.70;73.80;;;;;;10510660;28;20196;-83
2022/05/15 11:17:05;;;;;;;4.27;3.97;;;23.60;73.20;;;;;;10525883;28;20242;-84
2022/05/15 11:22:19;;;;;;;3.63;3.20;;;23.50;80.70;;;;;;10525546;28;20205;-84
2022/05/15 11:27:29;;;;;;;2.70;2.50;;;23.40;77.20;;;;;;10510601;28;20246;-85
2022/05/15 11:32:35;;;;;;;3.97;3.00;;;23.30;74.90;;;;;;10487768;28;20204;-85
2022/05/15 11:37:52;;;;;;;3.00;2.83;;;23.20;83.60;;;;;;10505510;28;20258;-85
2022/05/15 11:42:56;;;;;;;3.20;2.97;;;23.20;77.10;;;;;;10504661;28;20227;-83
2022/05/15 11:48:01;;;;;;;3.23;2.97;;;23.10;80.40;;;;;;10501635;28;20668;-84
2022/05/15 11:53:09;;;;;;;3.40;3.10;;;23.20;75.00;;;;;;10496935;28;20220;-84
2022/05/15 11:58:32;;;;;;;3.37;3.07;;;23.20;74.90;;;;;;10508343;28;20204;-83
2022/05/15 12:03:50;;;;;;;3.43;3.10;;;23.20;78.30;;;;;;10528782;28;20223;-84
2022/05/15 12:09:20;;;;;;;4.73;3.60;;;23.20;75.00;;;;;;10525348;28;20192;-83
2022/05/15 12:14:35;;;;;;;4.00;2.97;;;23.30;72.00;;;;;;10509660;28;20687;-83
2022/05/15 12:19:39;;;;;;;3.40;3.10;;;23.30;81.50;;;;;;10502182;28;20244;-84
2022/05/15 12:24:45;;;;;;;2.83;2.63;;;23.20;79.30;;;;;;10504135;28;20675;-86
2022/05/15 12:29:58;;;;;;;2.50;2.40;;;23.20;80.30;;;;;;10485165;28;20212;-85
2022/05/15 12:35:01;;;;;;;3.73;3.43;;;23.10;80.70;;;;;;10526115;28;20262;-83
2022/05/15 12:40:04;;;;;;;3.30;2.80;;;23.10;80.70;;;;;;10496150;28;20619;-83
2022/05/15 12:45:12;;;;;;;3.50;3.30;;;23.10;79.70;;;;;;10496359;28;20972;-83
2022/05/15 12:50:17;;;;;;;3.40;3.10;;;23.10;80.70;;;;;;10518097;28;20201;-83
2022/05/15 12:55:24;;;;;;;3.73;3.10;;;23.10;76.20;;;;;;10504640;28;20385;-83
2022/05/15 13:00:31;;;;;;;3.20;3.00;;;23.10;77.90;;;;;;10505213;28;20212;-84
2022/05/15 13:05:36;;;;;;;2.80;2.60;;;23.20;73.50;;;;;;10509301;28;20216;-84
2022/05/15 13:10:45;;;;;;;2.87;2.67;;;23.30;75.20;;;;;;10539808;28;20655;-84
2022/05/15 13:15:52;;;;;;;3.40;3.10;;;23.30;75.30;;;;;;10504255;28;20228;-84
2022/05/15 13:20:57;;;;;;;3.37;3.10;;;23.30;74.00;;;;;;10504850;28;20207;-84
2022/05/15 13:26:01;;;;;;;2.90;2.70;;;23.30;78.00;;;;;;10483308;28;20216;-84
2022/05/15 13:31:05;;;;;;;5.77;2.80;;;23.30;81.70;;;;;;10510314;28;20204;-84
2022/05/15 13:36:12;;;;;;;3.20;2.97;;;23.20;73.10;;;;;;10490249;28;20259;-84
2022/05/15 13:46:43;;;;;;;2.90;2.73;;;23.30;78.20;;;;;;10482547;28;20273;-84
2022/05/15 13:51:49;;;;;;;2.63;2.53;;;23.40;74.00;;;;;;10504788;28;20205;-84
2022/05/15 13:57:08;;;;;;;2.70;2.50;;;23.40;76.80;;;;;;10489986;28;20228;-84
2022/05/15 14:02:15;;;;;;;3.03;2.83;;;23.40;77.10;;;;;;10522771;28;20626;-86
2022/05/15 14:07:29;;;;;;;3.00;2.87;;;23.30;80.60;;;;;;10508250;28;20224;-84
2022/05/15 14:12:41;;;;;;;3.00;2.73;;;23.30;72.90;;;;;;10506664;28;20219;-84
2022/05/15 14:17:51;;;;;;;2.50;2.30;;;23.40;76.60;;;;;;10496024;28;20226;-84
2022/05/15 14:22:53;;;;;;;3.60;2.80;;;23.40;74.70;;;;;;10471292;28;20248;-86
2022/05/15 14:27:55;;;;;;;2.63;2.53;;;23.40;74.30;;;;;;10512123;28;20200;-86
2022/05/15 14:33:02;;;;;;;3.53;2.90;;;23.40;76.80;;;;;;10510887;28;20224;-86
2022/05/15 14:38:04;;;;;;;2.67;2.47;;;23.40;80.10;;;;;;10500407;28;20210;-85
2022/05/15 14:43:06;;;;;;;3.37;2.33;;;23.30;82.60;;;;;;10493923;28;20722;-84
2022/05/15 14:48:14;;;;;;;2.50;2.40;;;23.20;79.70;;;;;;10515057;28;20232;-84
2022/05/15 14:53:19;;;;;;;2.40;2.30;;;23.20;83.10;;;;;;10498709;28;20232;-84
2022/05/15 14:58:26;;;;;;;2.90;2.40;;;23.10;78.70;;;;;;10489740;28;20199;-85
2022/05/15 15:03:29;;;;;;;4.10;2.57;;;23.10;79.30;;;;;;10481330;28;20889;-85
2022/05/15 15:08:34;;;;;;;2.60;2.50;;;23.20;72.50;;;;;;10501466;28;20234;-85
2022/05/15 15:13:36;;;;;;;3.23;2.93;;;23.20;80.20;;;;;;10503641;28;20255;-86
2022/05/15 15:18:43;;;;;;;3.00;2.80;;;23.10;84.40;;;;;;10514168;28;20205;-87
2022/05/15 15:23:49;;;;;;;2.50;2.30;;;23.00;88.20;;;;;;10513632;28;20238;-85
2022/05/15 15:28:51;;;;;;;2.80;2.70;;;22.90;89.30;;;;;;10516048;28;20287;-85
2022/05/15 15:33:55;;;;;;;2.83;2.63;;;22.80;82.80;;;;;;10524275;28;20215;-85
2022/05/15 15:38:58;;;;;;;2.70;2.60;;;22.80;80.90;;;;;;10514400;28;20200;-86
2022/05/15 15:44:01;;;;;;;3.47;3.13;;;22.80;85.70;;;;;;10514851;28;20711;-85
2022/05/15 15:49:05;;;;;;;2.50;2.37;;;22.80;76.90;;;;;;10519650;28;20287;-84
2022/05/15 15:54:09;;;;;;;2.80;2.60;;;23.00;75.30;;;;;;10497359;28;20224;-84
2022/05/15 15:59:12;;;;;;;4.77;3.00;;;23.10;74.30;;;;;;10512255;28;20235;-84
2022/05/15 16:04:16;;;;;;;2.30;2.20;;;23.20;75.80;;;;;;10492673;28;20594;-84
2022/05/15 16:09:18;;;;;;;2.37;2.20;;;23.30;76.00;;;;;;10472455;28;20212;-84
2022/05/15 16:14:22;;;;;;;2.50;2.33;;;23.30;74.70;;;;;;10496738;28;20315;-85
2022/05/15 16:19:25;;;;;;;2.90;2.57;;;23.40;75.30;;;;;;10504584;28;20215;-85
2022/05/15 16:24:31;;;;;;;2.60;2.40;;;23.30;76.30;;;;;;10487301;28;20218;-84
2022/05/15 16:29:36;;;;;;;2.30;2.10;;;23.50;69.30;;;;;;10482298;28;20200;-85
2022/05/15 16:34:39;;;;;;;2.63;2.40;;;23.60;76.50;;;;;;10508055;28;20228;-85
2022/05/15 16:39:42;;;;;;;3.03;2.50;;;23.60;75.70;;;;;;10513424;28;20192;-85
2022/05/15 16:44:44;;;;;;;2.30;2.10;;;23.60;75.90;;;;;;10497778;28;20224;-85
2022/05/15 16:49:48;;;;;;;2.63;2.30;;;23.50;73.90;;;;;;10498965;28;20657;-85
2022/05/15 16:54:50;;;;;;;3.20;2.57;;;23.50;73.30;;;;;;10514059;28;20703;-85
2022/05/15 16:59:54;;;;;;;3.20;2.37;;;23.50;77.10;;;;;;10493031;28;20257;-85
2022/05/15 17:05:00;;;;;;;2.67;2.37;;;23.40;81.60;;;;;;10528903;28;20220;-84
2022/05/15 17:10:02;;;;;;;3.13;2.87;;;23.20;77.80;;;;;;10501626;28;20219;-85
2022/05/15 17:15:06;;;;;;;2.37;2.27;;;23.10;84.00;;;;;;10485335;28;20234;-84
2022/05/15 17:20:11;;;;;;;3.40;2.83;;;23.00;84.20;;;;;;10499323;28;20197;-85
2022/05/15 17:25:14;;;;;;;3.20;2.33;;;22.90;80.50;;;;;;10489536;28;20270;-85
2022/05/15 17:35:38;;;;;;;2.93;2.60;;;22.90;81.80;;;;;;10485622;28;20222;-86
2022/05/15 17:40:40;;;;;;;5.43;2.53;;;23.00;80.30;;;;;;10499773;28;20205;-85
2022/05/15 17:45:43;;;;;;;2.77;2.53;;;23.00;81.50;;;;;;10499593;22;20236;-79
2022/05/15 17:50:48;;;;;;;3.00;2.80;;;23.00;81.40;;;;;;10473478;28;20601;-79
2022/05/15 17:55:58;;;;;;;3.03;2.83;;;23.00;81.00;;;;;;10459815;28;20235;-79
2022/05/15 18:01:09;;;;;;;2.70;2.50;;;23.00;81.40;;;;;;10471049;28;20656;-80
2022/05/15 18:06:36;;;;;;;2.57;2.37;;;23.00;82.60;;;;;;10479726;28;20520;-79
2022/05/15 18:11:40;;;;;;;2.60;2.40;;;23.00;83.00;;;;;;10477678;28;20653;-80
2022/05/15 18:16:42;;;;;;;5.23;4.13;;;22.90;82.40;;;;;;10465696;28;20224;-80
2022/05/15 18:21:46;;;;;;;3.60;3.30;;;22.90;84.50;;;;;;10474843;28;20236;-80
2022/05/15 18:26:48;;;;;;;3.10;2.83;;;22.70;83.60;;;;;;10470685;28;20225;-80
2022/05/15 18:31:50;;;;;;;4.37;3.53;;;22.60;83.90;;;;;;10469153;28;20219;-80
2022/05/15 18:36:54;;;;;;;2.90;2.70;;;22.60;85.40;;;;;;10475153;28;20254;-80
2022/05/15 18:42:01;;;;;;;4.77;3.10;;;22.40;87.40;;;;;;10468922;28;20189;-80
2022/05/15 18:47:05;;;;;;;3.37;3.07;;;22.30;88.30;;;;;;10467281;28;20326;-80
2022/05/15 18:57:31;;;;;;;3.20;2.97;;;21.90;90.40;;;;;;10477013;28;20216;-81
2022/05/15 19:02:33;;;;;;;2.33;2.23;;;21.80;90.30;;;;;;10477518;28;20638;-80
2022/05/15 19:07:46;;;;;;;2.67;2.47;;;21.70;90.90;;;;;;10470877;28;20217;-80
2022/05/15 19:12:50;;;;;;;3.80;2.90;;;21.60;90.20;;;;;;10472607;28;20228;-80
2022/05/15 19:17:52;;;;;;;3.10;2.80;;;21.40;91.30;;;;;;10489513;28;20258;-79
2022/05/15 19:22:56;;;;;;;4.50;3.07;;;21.30;91.90;;;;;;10462088;28;20209;-80
2022/05/15 19:27:58;;;;;;;3.30;3.10;;;21.20;92.50;;;;;;10479986;28;20217;-80
2022/05/15 19:33:00;;;;;;;4.90;2.73;;;21.10;91.90;;;;;;10473315;28;20243;-81
2022/05/15 19:38:04;;;;;;;3.23;3.00;;;21.00;92.50;;;;;;10455337;28;20695;-80
2022/05/15 19:43:12;;;;;;;4.40;2.63;;;21.00;93.00;;;;;;10442360;28;20287;-79
2022/05/15 19:48:15;;;;;;;3.37;2.70;;;20.90;92.90;;;;;;10466288;28;20213;-79
2022/05/15 19:53:18;;;;;;;3.30;3.00;;;20.80;92.90;;;;;;10460416;28;20237;-79
2022/05/15 19:58:22;;;;;;;3.43;2.30;;;20.80;92.90;;;;;;10471357;28;20205;-79
2022/05/15 20:03:24;;;;;;;4.07;3.30;;;20.70;92.80;;;;;;10475953;28;20207;-79
2022/05/15 20:13:48;;;;;;;4.33;2.80;;;20.60;93.20;;;;;;10471131;28;20921;-79
2022/05/15 20:18:50;;;;;;;3.30;3.10;;;20.50;92.20;;;;;;10463659;28;20204;-79
2022/05/15 20:23:54;;;;;;;2.90;2.70;;;20.50;92.90;;;;;;10472639;28;20784;-79
2022/05/15 20:28:57;;;;;;;6.30;3.13;;;20.40;92.50;;;;;;10461974;28;20553;-78
2022/05/15 20:33:59;;;;;;;3.23;2.60;;;20.40;92.50;;;;;;10468284;28;20225;-79
2022/05/15 20:39:03;;;;;;;3.10;2.90;;;20.30;92.50;;;;;;10457814;28;20207;-78
2022/05/15 20:44:05;;;;;;;2.63;2.43;;;20.30;92.70;;;;;;10448733;28;20721;-77
2022/05/15 20:49:08;;;;;;;3.83;2.80;;;20.20;91.90;;;;;;10489461;28;20238;-78
2022/05/15 20:54:14;;;;;;;2.80;2.60;;;20.20;91.80;;;;;;10485133;28;20273;-77
2022/05/15 20:59:17;;;;;;;2.97;2.47;;;20.10;90.80;;;;;;10491810;28;20222;-78
2022/05/15 21:04:19;;;;;;;2.63;2.50;;;20.00;91.30;;;;;;10498780;28;20228;-78
2022/05/15 21:09:23;;;;;;;7.07;2.87;;;20.00;91.30;;;;;;10492609;28;20296;-81
2022/05/15 21:14:25;;;;;;;2.80;2.60;;;19.90;91.80;;;;;;10469491;28;20747;-78
2022/05/15 21:19:28;;;;;;;2.97;2.70;;;19.90;92.10;;;;;;10485335;28;20289;-77
2022/05/15 21:24:31;;;;;;;3.43;3.23;;;19.90;92.60;;;;;;10487946;28;20273;-77
2022/05/15 21:29:34;;;;;;;2.87;2.63;;;19.80;92.60;;;;;;10488943;28;20197;-78
2022/05/15 21:34:36;;;;;;;3.00;2.80;;;19.80;92.90;;;;;;10465477;28;20314;-78
2022/05/15 21:45:03;;;;;;;2.90;2.70;;;19.70;92.80;;;;;;10488236;28;20289;-77
2022/05/15 21:50:09;;;;;;;4.33;2.63;;;19.70;92.30;;;;;;10488923;28;20200;-78
2022/05/15 21:55:12;;;;;;;2.67;2.47;;;19.60;91.70;;;;;;10476219;28;20711;-78
2022/05/15 22:00:48;;;;;;;2.53;2.33;;;19.60;92.50;;;;;;10469296;28;20242;-78
2022/05/15 22:06:00;;;;;;;2.13;2.03;;;19.60;93.10;;;;;;10491336;28;20238;-78
2022/05/15 22:11:05;;;;;;;3.70;3.40;;;19.50;92.40;;;;;;10493593;28;20300;-78
2022/05/15 22:16:08;;;;;;;3.00;2.80;;;19.50;92.90;;;;;;10486483;28;20811;-77
2022/05/15 22:21:10;;;;;;;3.33;3.10;;;19.40;92.40;;;;;;10471210;28;20196;-78
2022/05/15 22:26:14;;;;;;;4.30;2.80;;;19.40;93.30;;;;;;10484098;28;20271;-78
2022/05/15 22:31:16;;;;;;;3.33;3.10;;;19.40;93.70;;;;;;10490072;28;20661;-76
2022/05/15 22:36:19;;;;;;;4.60;3.33;;;19.40;93.60;;;;;;10493278;28;20248;-77
2022/05/15 22:41:22;;;;;;;3.17;2.97;;;19.30;93.50;;;;;;10474797;28;20216;-78
2022/05/15 22:46:25;;;;;;;3.50;3.20;;;19.20;92.90;;;;;;10485661;28;20264;-77
2022/05/15 22:51:28;;;;;;;3.20;3.00;;;19.20;92.60;;;;;;10488061;28;20228;-77
2022/05/15 22:56:32;;;;;;;4.80;3.40;;;19.10;93.50;;;;;;10458922;28;20221;-78
2022/05/15 23:01:34;;;;;;;3.37;3.17;;;19.00;92.90;;;;;;10465559;28;20280;-77
2022/05/15 23:11:58;;;;;;;4.27;3.03;;;18.90;93.40;;;;;;10462598;28;20208;-78
2022/05/15 23:17:00;;;;;;;3.40;3.10;;;18.90;93.40;;;;;;10461389;28;20283;-78
2022/05/15 23:22:02;;;;;;;3.40;3.20;;;18.80;93.30;;;;;;10465824;28;20221;-78
2022/05/15 23:27:06;;;;;;;3.57;3.27;;;18.80;92.70;;;;;;10461091;28;20209;-78
2022/05/15 23:32:11;;;;;;;3.00;2.80;;;18.80;91.90;;;;;;10476990;28;20214;-78
2022/05/15 23:37:13;;;;;;;3.23;2.93;;;18.80;92.30;;;;;;10490172;28;20228;-78
2022/05/15 23:42:16;;;;;;;3.50;3.17;;;18.70;92.50;;;;;;10490730;28;20231;-78
2022/05/15 23:47:19;;;;;;;2.97;2.77;;;18.70;92.30;;;;;;10549268;22;20251;-85
2022/05/15 23:52:21;;;;;;;3.40;3.20;;;18.70;93.40;;;;;;10531185;28;20200;-85
2022/05/15 23:57:26;;;;;;;3.30;3.10;;;18.70;93.50;;;;;;10508124;28;20302;-86
